sensor_id;sensor_type;location;lat;lon;timestamp;P1;durP1;ratioP1;P2;durP2;ratioP2
20296;SDS011;10307;40.100;18.336;2023-02-17T00:03:48;64.05;;;37.72;;
20296;SDS011;10307;40.100;18.336;2023-02-17T00:06:16;52.17;;;36.53;;
20296;SDS011;10307;40.100;18.336;2023-02-17T00:08:44;55.70;;;34.63;;
20296;SDS011;10307;40.100;18.336;2023-02-17T00:11:11;59.15;;;37.10;;
20296;SDS011;10307;40.100;18.336;2023-02-17T00:13:38;55.33;;;34.58;;
20296;SDS011;10307;40.100;18.336;2023-02-17T00:16:23;54.90;;;34.03;;
20296;SDS011;10307;40.100;18.336;2023-02-17T00:18:52;56.53;;;31.13;;
20296;SDS011;10307;40.100;18.336;2023-02-17T00:21:32;55.67;;;33.63;;
20296;SDS011;10307;40.100;18.336;2023-02-17T00:24:06;60.50;;;33.42;;
20296;SDS011;10307;40.100;18.336;2023-02-17T00:26:33;63.03;;;36.25;;
20296;SDS011;10307;40.100;18.336;2023-02-17T00:28:59;71.53;;;37.38;;
20296;SDS011;10307;40.100;18.336;2023-02-17T00:31:25;61.80;;;35.63;;
20296;SDS011;10307;40.100;18.336;2023-02-17T00:33:55;65.45;;;36.75;;
20296;SDS011;10307;40.100;18.336;2023-02-17T00:36:21;59.97;;;33.65;;
20296;SDS011;10307;40.100;18.336;2023-02-17T00:38:48;59.67;;;34.03;;
20296;SDS011;10307;40.100;18.336;2023-02-17T00:41:15;55.78;;;33.25;;
20296;SDS011;10307;40.100;18.336;2023-02-17T00:43:42;59.30;;;35.03;;
20296;SDS011;10307;40.100;18.336;2023-02-17T00:46:09;56.50;;;32.90;;
20296;SDS011;10307;40.100;18.336;2023-02-17T00:48:35;56.15;;;33.58;;
20296;SDS011;10307;40.100;18.336;2023-02-17T00:51:03;59.78;;;33.17;;
20296;SDS011;10307;40.100;18.336;2023-02-17T00:53:29;58.75;;;33.85;;
20296;SDS011;10307;40.100;18.336;2023-02-17T00:55:56;57.83;;;34.17;;
20296;SDS011;10307;40.100;18.336;2023-02-17T00:58:23;57.72;;;34.35;;
20296;SDS011;10307;40.100;18.336;2023-02-17T01:00:49;57.97;;;32.63;;
20296;SDS011;10307;40.100;18.336;2023-02-17T01:03:16;49.15;;;29.00;;
20296;SDS011;10307;40.100;18.336;2023-02-17T01:05:44;45.28;;;27.20;;
20296;SDS011;10307;40.100;18.336;2023-02-17T01:08:13;50.95;;;29.15;;
20296;SDS011;10307;40.100;18.336;2023-02-17T01:10:41;46.03;;;28.80;;
20296;SDS011;10307;40.100;18.336;2023-02-17T01:13:09;51.35;;;30.00;;
20296;SDS011;10307;40.100;18.336;2023-02-17T01:15:37;47.28;;;29.67;;
20296;SDS011;10307;40.100;18.336;2023-02-17T01:18:11;44.58;;;27.55;;
20296;SDS011;10307;40.100;18.336;2023-02-17T01:20:39;49.53;;;28.90;;
20296;SDS011;10307;40.100;18.336;2023-02-17T01:23:05;56.67;;;32.47;;
20296;SDS011;10307;40.100;18.336;2023-02-17T01:25:41;52.65;;;31.38;;
20296;SDS011;10307;40.100;18.336;2023-02-17T01:28:17;45.70;;;28.40;;
20296;SDS011;10307;40.100;18.336;2023-02-17T01:30:45;46.55;;;29.75;;
20296;SDS011;10307;40.100;18.336;2023-02-17T01:33:12;49.58;;;29.45;;
20296;SDS011;10307;40.100;18.336;2023-02-17T01:35:39;50.00;;;27.80;;
20296;SDS011;10307;40.100;18.336;2023-02-17T01:38:05;46.05;;;27.80;;
20296;SDS011;10307;40.100;18.336;2023-02-17T01:40:31;44.13;;;26.08;;
20296;SDS011;10307;40.100;18.336;2023-02-17T01:42:57;42.72;;;24.63;;
20296;SDS011;10307;40.100;18.336;2023-02-17T01:45:28;39.95;;;23.50;;
20296;SDS011;10307;40.100;18.336;2023-02-17T01:47:59;35.42;;;20.85;;
20296;SDS011;10307;40.100;18.336;2023-02-17T01:50:39;40.72;;;22.45;;
20296;SDS011;10307;40.100;18.336;2023-02-17T01:53:42;37.38;;;21.35;;
20296;SDS011;10307;40.100;18.336;2023-02-17T01:56:20;37.55;;;21.17;;
20296;SDS011;10307;40.100;18.336;2023-02-17T01:58:49;40.72;;;21.00;;
20296;SDS011;10307;40.100;18.336;2023-02-17T02:01:21;38.65;;;20.65;;
20296;SDS011;10307;40.100;18.336;2023-02-17T02:03:48;33.92;;;19.92;;
20296;SDS011;10307;40.100;18.336;2023-02-17T02:06:17;39.22;;;21.05;;
20296;SDS011;10307;40.100;18.336;2023-02-17T02:11:17;35.00;;;19.40;;
20296;SDS011;10307;40.100;18.336;2023-02-17T02:13:47;39.25;;;21.75;;
20296;SDS011;10307;40.100;18.336;2023-02-17T02:16:35;34.63;;;20.13;;
20296;SDS011;10307;40.100;18.336;2023-02-17T02:31:00;39.92;;;22.80;;
20296;SDS011;10307;40.100;18.336;2023-02-17T02:37:14;54.10;;;28.25;;
20296;SDS011;10307;40.100;18.336;2023-02-17T02:39:52;48.78;;;28.60;;
20296;SDS011;10307;40.100;18.336;2023-02-17T02:42:22;51.75;;;29.15;;
20296;SDS011;10307;40.100;18.336;2023-02-17T02:44:49;52.05;;;27.67;;
20296;SDS011;10307;40.100;18.336;2023-02-17T02:50:00;46.15;;;27.20;;
20296;SDS011;10307;40.100;18.336;2023-02-17T02:53:10;51.92;;;28.02;;
20296;SDS011;10307;40.100;18.336;2023-02-17T02:58:48;45.80;;;26.10;;
20296;SDS011;10307;40.100;18.336;2023-02-17T03:01:40;46.92;;;27.35;;
20296;SDS011;10307;40.100;18.336;2023-02-17T03:07:08;47.55;;;27.08;;
20296;SDS011;10307;40.100;18.336;2023-02-17T03:09:50;47.08;;;26.25;;
20296;SDS011;10307;40.100;18.336;2023-02-17T03:12:19;46.25;;;26.73;;
20296;SDS011;10307;40.100;18.336;2023-02-17T03:14:49;44.67;;;25.92;;
20296;SDS011;10307;40.100;18.336;2023-02-17T03:17:19;41.10;;;25.05;;
20296;SDS011;10307;40.100;18.336;2023-02-17T03:19:49;48.58;;;25.73;;
20296;SDS011;10307;40.100;18.336;2023-02-17T03:22:24;43.40;;;24.52;;
20296;SDS011;10307;40.100;18.336;2023-02-17T03:24:56;48.20;;;23.25;;
20296;SDS011;10307;40.100;18.336;2023-02-17T03:27:24;38.97;;;23.60;;
20296;SDS011;10307;40.100;18.336;2023-02-17T03:29:51;37.95;;;23.45;;
20296;SDS011;10307;40.100;18.336;2023-02-17T03:32:19;35.08;;;21.88;;
20296;SDS011;10307;40.100;18.336;2023-02-17T03:34:45;42.30;;;24.95;;
20296;SDS011;10307;40.100;18.336;2023-02-17T03:37:11;46.00;;;25.77;;
20296;SDS011;10307;40.100;18.336;2023-02-17T03:39:37;45.05;;;25.45;;
20296;SDS011;10307;40.100;18.336;2023-02-17T03:42:04;46.42;;;26.85;;
20296;SDS011;10307;40.100;18.336;2023-02-17T03:44:30;44.58;;;26.75;;
20296;SDS011;10307;40.100;18.336;2023-02-17T03:46:56;43.13;;;25.33;;
20296;SDS011;10307;40.100;18.336;2023-02-17T03:49:22;39.38;;;22.85;;
20296;SDS011;10307;40.100;18.336;2023-02-17T03:51:49;34.15;;;19.77;;
20296;SDS011;10307;40.100;18.336;2023-02-17T03:54:15;29.85;;;18.17;;
20296;SDS011;10307;40.100;18.336;2023-02-17T03:56:41;31.60;;;18.73;;
20296;SDS011;10307;40.100;18.336;2023-02-17T03:59:08;37.65;;;23.40;;
20296;SDS011;10307;40.100;18.336;2023-02-17T04:01:34;38.10;;;21.23;;
20296;SDS011;10307;40.100;18.336;2023-02-17T04:04:00;34.80;;;19.45;;
20296;SDS011;10307;40.100;18.336;2023-02-17T04:06:26;33.15;;;18.60;;
20296;SDS011;10307;40.100;18.336;2023-02-17T04:08:53;24.58;;;15.68;;
20296;SDS011;10307;40.100;18.336;2023-02-17T04:11:19;25.15;;;15.60;;
20296;SDS011;10307;40.100;18.336;2023-02-17T04:13:45;25.92;;;14.70;;
20296;SDS011;10307;40.100;18.336;2023-02-17T04:16:11;24.05;;;15.85;;
20296;SDS011;10307;40.100;18.336;2023-02-17T04:18:38;26.00;;;16.23;;
20296;SDS011;10307;40.100;18.336;2023-02-17T04:21:04;33.38;;;17.42;;
20296;SDS011;10307;40.100;18.336;2023-02-17T04:23:33;30.35;;;17.30;;
20296;SDS011;10307;40.100;18.336;2023-02-17T04:26:01;34.08;;;21.50;;
20296;SDS011;10307;40.100;18.336;2023-02-17T04:28:31;38.25;;;23.13;;
20296;SDS011;10307;40.100;18.336;2023-02-17T04:30:58;40.08;;;24.95;;
20296;SDS011;10307;40.100;18.336;2023-02-17T04:33:25;41.50;;;25.10;;
20296;SDS011;10307;40.100;18.336;2023-02-17T04:35:51;43.00;;;25.65;;
20296;SDS011;10307;40.100;18.336;2023-02-17T04:38:24;46.72;;;28.75;;
20296;SDS011;10307;40.100;18.336;2023-02-17T04:40:55;43.20;;;27.33;;
20296;SDS011;10307;40.100;18.336;2023-02-17T04:43:24;37.58;;;20.58;;
20296;SDS011;10307;40.100;18.336;2023-02-17T04:45:52;34.00;;;19.17;;
20296;SDS011;10307;40.100;18.336;2023-02-17T04:48:19;36.30;;;20.40;;
20296;SDS011;10307;40.100;18.336;2023-02-17T04:50:46;37.28;;;18.90;;
20296;SDS011;10307;40.100;18.336;2023-02-17T04:53:12;37.03;;;21.52;;
20296;SDS011;10307;40.100;18.336;2023-02-17T04:55:39;40.97;;;23.55;;
20296;SDS011;10307;40.100;18.336;2023-02-17T04:58:06;37.28;;;23.35;;
20296;SDS011;10307;40.100;18.336;2023-02-17T05:00:33;40.50;;;23.52;;
20296;SDS011;10307;40.100;18.336;2023-02-17T05:02:59;40.45;;;25.38;;
20296;SDS011;10307;40.100;18.336;2023-02-17T05:05:25;42.58;;;23.75;;
20296;SDS011;10307;40.100;18.336;2023-02-17T05:07:52;39.65;;;24.17;;
20296;SDS011;10307;40.100;18.336;2023-02-17T05:10:18;38.53;;;25.58;;
20296;SDS011;10307;40.100;18.336;2023-02-17T05:12:44;39.67;;;24.33;;
20296;SDS011;10307;40.100;18.336;2023-02-17T05:15:11;44.17;;;27.05;;
20296;SDS011;10307;40.100;18.336;2023-02-17T05:17:37;47.63;;;28.85;;
20296;SDS011;10307;40.100;18.336;2023-02-17T05:20:04;49.92;;;30.75;;
20296;SDS011;10307;40.100;18.336;2023-02-17T05:22:32;49.50;;;29.98;;
20296;SDS011;10307;40.100;18.336;2023-02-17T05:24:58;49.90;;;29.13;;
20296;SDS011;10307;40.100;18.336;2023-02-17T05:27:24;50.85;;;26.58;;
20296;SDS011;10307;40.100;18.336;2023-02-17T05:29:51;44.50;;;27.05;;
20296;SDS011;10307;40.100;18.336;2023-02-17T05:32:17;50.50;;;27.02;;
20296;SDS011;10307;40.100;18.336;2023-02-17T05:34:43;50.88;;;30.20;;
20296;SDS011;10307;40.100;18.336;2023-02-17T05:37:10;60.75;;;32.10;;
20296;SDS011;10307;40.100;18.336;2023-02-17T05:39:36;45.17;;;26.92;;
20296;SDS011;10307;40.100;18.336;2023-02-17T05:42:02;40.13;;;24.45;;
20296;SDS011;10307;40.100;18.336;2023-02-17T05:44:29;41.53;;;23.88;;
20296;SDS011;10307;40.100;18.336;2023-02-17T05:46:55;39.10;;;24.45;;
20296;SDS011;10307;40.100;18.336;2023-02-17T05:49:21;42.00;;;24.83;;
20296;SDS011;10307;40.100;18.336;2023-02-17T05:51:47;40.90;;;24.48;;
20296;SDS011;10307;40.100;18.336;2023-02-17T05:54:14;42.65;;;25.13;;
20296;SDS011;10307;40.100;18.336;2023-02-17T05:56:40;38.92;;;23.00;;
20296;SDS011;10307;40.100;18.336;2023-02-17T05:59:06;34.15;;;20.55;;
20296;SDS011;10307;40.100;18.336;2023-02-17T06:01:33;35.22;;;21.23;;
20296;SDS011;10307;40.100;18.336;2023-02-17T06:03:59;42.25;;;22.98;;
20296;SDS011;10307;40.100;18.336;2023-02-17T06:06:25;36.53;;;21.23;;
20296;SDS011;10307;40.100;18.336;2023-02-17T06:08:51;38.10;;;22.30;;
20296;SDS011;10307;40.100;18.336;2023-02-17T06:11:18;39.03;;;21.90;;
20296;SDS011;10307;40.100;18.336;2023-02-17T06:13:44;40.20;;;22.92;;
20296;SDS011;10307;40.100;18.336;2023-02-17T06:16:10;40.88;;;21.05;;
20296;SDS011;10307;40.100;18.336;2023-02-17T06:18:37;44.97;;;22.02;;
20296;SDS011;10307;40.100;18.336;2023-02-17T06:21:03;43.08;;;23.30;;
20296;SDS011;10307;40.100;18.336;2023-02-17T06:23:29;45.40;;;23.77;;
20296;SDS011;10307;40.100;18.336;2023-02-17T06:25:56;45.97;;;23.15;;
20296;SDS011;10307;40.100;18.336;2023-02-17T06:28:22;41.13;;;23.52;;
20296;SDS011;10307;40.100;18.336;2023-02-17T06:30:48;42.03;;;25.55;;
20296;SDS011;10307;40.100;18.336;2023-02-17T06:33:14;53.80;;;26.13;;
20296;SDS011;10307;40.100;18.336;2023-02-17T06:35:40;42.05;;;23.88;;
20296;SDS011;10307;40.100;18.336;2023-02-17T06:38:08;47.33;;;24.20;;
20296;SDS011;10307;40.100;18.336;2023-02-17T06:40:35;45.83;;;25.05;;
20296;SDS011;10307;40.100;18.336;2023-02-17T06:43:01;46.03;;;24.40;;
20296;SDS011;10307;40.100;18.336;2023-02-17T06:45:27;46.00;;;22.80;;
20296;SDS011;10307;40.100;18.336;2023-02-17T06:47:54;45.35;;;22.05;;
20296;SDS011;10307;40.100;18.336;2023-02-17T06:50:20;40.72;;;21.27;;
20296;SDS011;10307;40.100;18.336;2023-02-17T06:52:46;39.85;;;23.30;;
20296;SDS011;10307;40.100;18.336;2023-02-17T06:55:13;39.22;;;22.52;;
20296;SDS011;10307;40.100;18.336;2023-02-17T06:57:39;44.88;;;21.20;;
20296;SDS011;10307;40.100;18.336;2023-02-17T07:00:06;41.60;;;22.95;;
20296;SDS011;10307;40.100;18.336;2023-02-17T07:02:32;41.83;;;23.23;;
20296;SDS011;10307;40.100;18.336;2023-02-17T07:05:01;38.80;;;21.70;;
20296;SDS011;10307;40.100;18.336;2023-02-17T07:07:27;43.75;;;24.52;;
20296;SDS011;10307;40.100;18.336;2023-02-17T07:09:54;41.55;;;22.73;;
20296;SDS011;10307;40.100;18.336;2023-02-17T07:12:20;45.08;;;23.30;;
20296;SDS011;10307;40.100;18.336;2023-02-17T07:14:46;47.92;;;24.05;;
20296;SDS011;10307;40.100;18.336;2023-02-17T07:17:12;47.20;;;25.33;;
20296;SDS011;10307;40.100;18.336;2023-02-17T07:19:39;50.97;;;31.33;;
20296;SDS011;10307;40.100;18.336;2023-02-17T07:22:05;64.30;;;36.58;;
20296;SDS011;10307;40.100;18.336;2023-02-17T07:24:32;55.33;;;30.65;;
20296;SDS011;10307;40.100;18.336;2023-02-17T07:26:58;65.53;;;35.92;;
20296;SDS011;10307;40.100;18.336;2023-02-17T07:29:25;65.80;;;36.50;;
20296;SDS011;10307;40.100;18.336;2023-02-17T07:31:52;53.53;;;29.88;;
20296;SDS011;10307;40.100;18.336;2023-02-17T07:34:18;47.22;;;27.25;;
20296;SDS011;10307;40.100;18.336;2023-02-17T07:36:44;43.80;;;26.55;;
20296;SDS011;10307;40.100;18.336;2023-02-17T07:39:11;45.80;;;26.38;;
20296;SDS011;10307;40.100;18.336;2023-02-17T07:41:37;43.10;;;25.98;;
20296;SDS011;10307;40.100;18.336;2023-02-17T07:44:08;46.63;;;26.60;;
20296;SDS011;10307;40.100;18.336;2023-02-17T07:46:35;45.65;;;27.48;;
20296;SDS011;10307;40.100;18.336;2023-02-17T07:49:04;50.50;;;27.50;;
20296;SDS011;10307;40.100;18.336;2023-02-17T07:51:30;53.38;;;29.58;;
20296;SDS011;10307;40.100;18.336;2023-02-17T07:53:57;49.30;;;27.08;;
20296;SDS011;10307;40.100;18.336;2023-02-17T07:56:25;47.10;;;24.73;;
20296;SDS011;10307;40.100;18.336;2023-02-17T07:58:54;44.40;;;23.90;;
20296;SDS011;10307;40.100;18.336;2023-02-17T08:01:22;46.17;;;25.85;;
20296;SDS011;10307;40.100;18.336;2023-02-17T08:03:50;52.55;;;26.08;;
20296;SDS011;10307;40.100;18.336;2023-02-17T08:06:18;48.85;;;26.75;;
20296;SDS011;10307;40.100;18.336;2023-02-17T08:08:46;48.83;;;27.17;;
20296;SDS011;10307;40.100;18.336;2023-02-17T08:11:32;46.67;;;24.48;;
20296;SDS011;10307;40.100;18.336;2023-02-17T08:14:19;64.85;;;27.92;;
20296;SDS011;10307;40.100;18.336;2023-02-17T08:16:47;52.88;;;28.13;;
20296;SDS011;10307;40.100;18.336;2023-02-17T08:19:13;62.20;;;32.50;;
20296;SDS011;10307;40.100;18.336;2023-02-17T08:21:39;63.08;;;31.38;;
20296;SDS011;10307;40.100;18.336;2023-02-17T08:24:05;56.25;;;29.25;;
20296;SDS011;10307;40.100;18.336;2023-02-17T08:26:32;65.95;;;30.10;;
20296;SDS011;10307;40.100;18.336;2023-02-17T08:28:58;56.90;;;30.00;;
20296;SDS011;10307;40.100;18.336;2023-02-17T08:31:26;45.25;;;21.83;;
20296;SDS011;10307;40.100;18.336;2023-02-17T08:33:54;41.78;;;21.20;;
20296;SDS011;10307;40.100;18.336;2023-02-17T08:36:21;31.85;;;16.90;;
20296;SDS011;10307;40.100;18.336;2023-02-17T08:38:49;23.15;;;12.75;;
20296;SDS011;10307;40.100;18.336;2023-02-17T08:41:21;24.75;;;11.82;;
20296;SDS011;10307;40.100;18.336;2023-02-17T08:43:49;17.48;;;10.35;;
20296;SDS011;10307;40.100;18.336;2023-02-17T08:46:17;20.13;;;10.95;;
20296;SDS011;10307;40.100;18.336;2023-02-17T08:48:44;37.97;;;17.30;;
20296;SDS011;10307;40.100;18.336;2023-02-17T08:51:11;40.75;;;19.55;;
20296;SDS011;10307;40.100;18.336;2023-02-17T08:53:42;28.30;;;14.60;;
20296;SDS011;10307;40.100;18.336;2023-02-17T08:56:10;25.85;;;13.98;;
20296;SDS011;10307;40.100;18.336;2023-02-17T08:58:36;18.92;;;12.05;;
20296;SDS011;10307;40.100;18.336;2023-02-17T09:01:03;20.95;;;12.63;;
20296;SDS011;10307;40.100;18.336;2023-02-17T09:03:29;22.10;;;12.00;;
20296;SDS011;10307;40.100;18.336;2023-02-17T09:06:02;21.80;;;11.85;;
20296;SDS011;10307;40.100;18.336;2023-02-17T09:08:29;21.83;;;11.95;;
20296;SDS011;10307;40.100;18.336;2023-02-17T09:10:56;20.10;;;10.38;;
20296;SDS011;10307;40.100;18.336;2023-02-17T09:13:22;18.20;;;10.35;;
20296;SDS011;10307;40.100;18.336;2023-02-17T09:15:49;16.90;;;10.48;;
20296;SDS011;10307;40.100;18.336;2023-02-17T09:18:18;17.10;;;9.30;;
20296;SDS011;10307;40.100;18.336;2023-02-17T09:20:46;17.80;;;10.02;;
20296;SDS011;10307;40.100;18.336;2023-02-17T09:23:12;14.98;;;7.53;;
20296;SDS011;10307;40.100;18.336;2023-02-17T09:25:39;16.00;;;7.72;;
20296;SDS011;10307;40.100;18.336;2023-02-17T09:28:05;15.55;;;7.60;;
20296;SDS011;10307;40.100;18.336;2023-02-17T09:30:31;17.10;;;8.38;;
20296;SDS011;10307;40.100;18.336;2023-02-17T09:32:58;17.10;;;9.20;;
20296;SDS011;10307;40.100;18.336;2023-02-17T09:35:24;13.98;;;7.97;;
20296;SDS011;10307;40.100;18.336;2023-02-17T09:37:51;15.45;;;6.80;;
20296;SDS011;10307;40.100;18.336;2023-02-17T09:40:19;14.85;;;7.82;;
20296;SDS011;10307;40.100;18.336;2023-02-17T09:42:49;15.00;;;7.10;;
20296;SDS011;10307;40.100;18.336;2023-02-17T09:45:17;17.80;;;8.02;;
20296;SDS011;10307;40.100;18.336;2023-02-17T09:47:47;16.50;;;7.85;;
20296;SDS011;10307;40.100;18.336;2023-02-17T09:50:19;19.67;;;10.63;;
20296;SDS011;10307;40.100;18.336;2023-02-17T09:52:53;15.27;;;8.90;;
20296;SDS011;10307;40.100;18.336;2023-02-17T09:55:30;14.73;;;8.77;;
20296;SDS011;10307;40.100;18.336;2023-02-17T09:58:02;14.00;;;8.38;;
20296;SDS011;10307;40.100;18.336;2023-02-17T10:00:40;17.80;;;10.05;;
20296;SDS011;10307;40.100;18.336;2023-02-17T10:05:46;26.48;;;13.55;;
20296;SDS011;10307;40.100;18.336;2023-02-17T10:11:22;17.38;;;9.98;;
20296;SDS011;10307;40.100;18.336;2023-02-17T10:14:10;13.65;;;8.48;;
20296;SDS011;10307;40.100;18.336;2023-02-17T10:22:03;13.27;;;8.15;;
20296;SDS011;10307;40.100;18.336;2023-02-17T10:24:35;15.95;;;7.80;;
20296;SDS011;10307;40.100;18.336;2023-02-17T10:29:50;17.00;;;9.10;;
20296;SDS011;10307;40.100;18.336;2023-02-17T10:35:32;15.60;;;8.60;;
20296;SDS011;10307;40.100;18.336;2023-02-17T10:41:00;19.17;;;10.57;;
20296;SDS011;10307;40.100;18.336;2023-02-17T10:43:30;19.88;;;11.20;;
20296;SDS011;10307;40.100;18.336;2023-02-17T10:46:02;19.38;;;10.18;;
20296;SDS011;10307;40.100;18.336;2023-02-17T10:48:33;14.30;;;8.48;;
20296;SDS011;10307;40.100;18.336;2023-02-17T10:51:00;13.73;;;7.97;;
20296;SDS011;10307;40.100;18.336;2023-02-17T10:53:29;12.13;;;7.15;;
20296;SDS011;10307;40.100;18.336;2023-02-17T10:56:16;12.35;;;8.13;;
20296;SDS011;10307;40.100;18.336;2023-02-17T10:58:56;13.02;;;8.65;;
20296;SDS011;10307;40.100;18.336;2023-02-17T11:01:29;14.35;;;7.88;;
20296;SDS011;10307;40.100;18.336;2023-02-17T11:04:05;11.65;;;6.57;;
20296;SDS011;10307;40.100;18.336;2023-02-17T11:06:52;11.82;;;6.72;;
20296;SDS011;10307;40.100;18.336;2023-02-17T11:09:21;12.27;;;6.82;;
20296;SDS011;10307;40.100;18.336;2023-02-17T11:12:00;13.00;;;7.43;;
20296;SDS011;10307;40.100;18.336;2023-02-17T11:14:29;11.57;;;6.60;;
20296;SDS011;10307;40.100;18.336;2023-02-17T11:19:30;10.50;;;6.05;;
20296;SDS011;10307;40.100;18.336;2023-02-17T11:21:59;13.25;;;7.03;;
20296;SDS011;10307;40.100;18.336;2023-02-17T11:24:32;13.70;;;8.20;;
20296;SDS011;10307;40.100;18.336;2023-02-17T11:27:01;12.20;;;7.55;;
20296;SDS011;10307;40.100;18.336;2023-02-17T11:29:30;9.32;;;5.20;;
20296;SDS011;10307;40.100;18.336;2023-02-17T11:32:05;12.43;;;6.13;;
20296;SDS011;10307;40.100;18.336;2023-02-17T11:34:37;11.07;;;5.47;;
20296;SDS011;10307;40.100;18.336;2023-02-17T11:39:39;10.00;;;5.97;;
20296;SDS011;10307;40.100;18.336;2023-02-17T11:42:24;12.52;;;8.02;;
20296;SDS011;10307;40.100;18.336;2023-02-17T11:44:56;10.95;;;5.95;;
20296;SDS011;10307;40.100;18.336;2023-02-17T11:52:46;12.52;;;7.65;;
20296;SDS011;10307;40.100;18.336;2023-02-17T11:58:22;11.93;;;6.30;;
20296;SDS011;10307;40.100;18.336;2023-02-17T12:03:36;14.55;;;7.38;;
20296;SDS011;10307;40.100;18.336;2023-02-17T12:15:22;9.77;;;7.50;;
20296;SDS011;10307;40.100;18.336;2023-02-17T12:32:18;10.82;;;6.28;;
20296;SDS011;10307;40.100;18.336;2023-02-17T12:34:58;12.77;;;7.20;;
20296;SDS011;10307;40.100;18.336;2023-02-17T12:37:52;10.10;;;6.50;;
20296;SDS011;10307;40.100;18.336;2023-02-17T12:45:50;10.38;;;6.28;;
20296;SDS011;10307;40.100;18.336;2023-02-17T12:50:59;10.40;;;6.53;;
20296;SDS011;10307;40.100;18.336;2023-02-17T12:53:35;12.13;;;6.57;;
20296;SDS011;10307;40.100;18.336;2023-02-17T12:58:53;11.30;;;7.03;;
20296;SDS011;10307;40.100;18.336;2023-02-17T13:01:25;35.87;;;23.70;;
20296;SDS011;10307;40.100;18.336;2023-02-17T13:03:57;35.85;;;27.17;;
20296;SDS011;10307;40.100;18.336;2023-02-17T13:06:35;17.55;;;11.07;;
20296;SDS011;10307;40.100;18.336;2023-02-17T13:11:46;12.50;;;7.50;;
20296;SDS011;10307;40.100;18.336;2023-02-17T13:14:26;16.27;;;9.20;;
20296;SDS011;10307;40.100;18.336;2023-02-17T13:17:02;22.33;;;10.52;;
20296;SDS011;10307;40.100;18.336;2023-02-17T13:19:30;13.15;;;7.97;;
20296;SDS011;10307;40.100;18.336;2023-02-17T13:21:59;12.73;;;7.72;;
20296;SDS011;10307;40.100;18.336;2023-02-17T13:27:10;13.20;;;7.10;;
20296;SDS011;10307;40.100;18.336;2023-02-17T13:29:57;10.75;;;6.97;;
20296;SDS011;10307;40.100;18.336;2023-02-17T13:32:33;12.15;;;7.13;;
20296;SDS011;10307;40.100;18.336;2023-02-17T13:35:04;14.93;;;8.15;;
20296;SDS011;10307;40.100;18.336;2023-02-17T13:37:51;13.63;;;8.55;;
20296;SDS011;10307;40.100;18.336;2023-02-17T13:42:47;16.58;;;10.70;;
20296;SDS011;10307;40.100;18.336;2023-02-17T13:45:26;15.02;;;9.27;;
20296;SDS011;10307;40.100;18.336;2023-02-17T13:48:14;14.27;;;7.13;;
20296;SDS011;10307;40.100;18.336;2023-02-17T13:50:52;14.65;;;7.25;;
20296;SDS011;10307;40.100;18.336;2023-02-17T13:53:27;18.20;;;9.80;;
20296;SDS011;10307;40.100;18.336;2023-02-17T13:55:57;17.25;;;9.40;;
20296;SDS011;10307;40.100;18.336;2023-02-17T13:58:32;13.25;;;7.78;;
20296;SDS011;10307;40.100;18.336;2023-02-17T14:01:05;14.10;;;8.25;;
20296;SDS011;10307;40.100;18.336;2023-02-17T14:06:05;13.05;;;6.68;;
20296;SDS011;10307;40.100;18.336;2023-02-17T14:08:36;13.43;;;7.60;;
20296;SDS011;10307;40.100;18.336;2023-02-17T14:11:09;12.55;;;8.48;;
20296;SDS011;10307;40.100;18.336;2023-02-17T14:13:41;13.13;;;7.65;;
20296;SDS011;10307;40.100;18.336;2023-02-17T14:19:13;16.95;;;7.90;;
20296;SDS011;10307;40.100;18.336;2023-02-17T14:21:44;13.85;;;7.95;;
20296;SDS011;10307;40.100;18.336;2023-02-17T14:26:57;12.07;;;6.82;;
20296;SDS011;10307;40.100;18.336;2023-02-17T14:32:31;20.52;;;11.48;;
20296;SDS011;10307;40.100;18.336;2023-02-17T14:37:37;11.55;;;7.00;;
20296;SDS011;10307;40.100;18.336;2023-02-17T14:40:06;14.35;;;6.60;;
20296;SDS011;10307;40.100;18.336;2023-02-17T14:42:56;12.45;;;7.47;;
20296;SDS011;10307;40.100;18.336;2023-02-17T14:45:23;14.57;;;7.95;;
20296;SDS011;10307;40.100;18.336;2023-02-17T14:47:49;14.27;;;7.15;;
20296;SDS011;10307;40.100;18.336;2023-02-17T14:50:16;11.05;;;6.47;;
20296;SDS011;10307;40.100;18.336;2023-02-17T14:52:46;11.85;;;7.25;;
20296;SDS011;10307;40.100;18.336;2023-02-17T14:57:53;14.98;;;8.90;;
20296;SDS011;10307;40.100;18.336;2023-02-17T15:00:20;14.07;;;7.68;;
20296;SDS011;10307;40.100;18.336;2023-02-17T15:02:47;14.95;;;7.93;;
20296;SDS011;10307;40.100;18.336;2023-02-17T15:05:13;16.63;;;7.70;;
20296;SDS011;10307;40.100;18.336;2023-02-17T15:07:39;12.38;;;7.60;;
20296;SDS011;10307;40.100;18.336;2023-02-17T15:10:25;21.80;;;12.52;;
20296;SDS011;10307;40.100;18.336;2023-02-17T15:12:52;67.03;;;32.13;;
20296;SDS011;10307;40.100;18.336;2023-02-17T15:15:19;86.53;;;47.20;;
20296;SDS011;10307;40.100;18.336;2023-02-17T15:17:46;55.83;;;34.35;;
20296;SDS011;10307;40.100;18.336;2023-02-17T15:20:12;28.15;;;18.80;;
20296;SDS011;10307;40.100;18.336;2023-02-17T15:22:40;15.05;;;9.57;;
20296;SDS011;10307;40.100;18.336;2023-02-17T15:25:11;16.75;;;9.85;;
20296;SDS011;10307;40.100;18.336;2023-02-17T15:27:42;25.77;;;16.60;;
20296;SDS011;10307;40.100;18.336;2023-02-17T15:30:11;24.52;;;13.77;;
20296;SDS011;10307;40.100;18.336;2023-02-17T15:32:39;26.98;;;16.58;;
20296;SDS011;10307;40.100;18.336;2023-02-17T15:35:12;19.42;;;11.30;;
20296;SDS011;10307;40.100;18.336;2023-02-17T15:37:48;19.77;;;12.63;;
20296;SDS011;10307;40.100;18.336;2023-02-17T15:40:16;23.45;;;12.32;;
20296;SDS011;10307;40.100;18.336;2023-02-17T15:42:45;20.50;;;12.98;;
20296;SDS011;10307;40.100;18.336;2023-02-17T15:45:16;23.88;;;13.00;;
20296;SDS011;10307;40.100;18.336;2023-02-17T15:47:45;18.70;;;11.48;;
20296;SDS011;10307;40.100;18.336;2023-02-17T15:50:21;21.67;;;11.82;;
20296;SDS011;10307;40.100;18.336;2023-02-17T15:52:48;24.45;;;14.05;;
20296;SDS011;10307;40.100;18.336;2023-02-17T15:55:16;28.60;;;14.93;;
20296;SDS011;10307;40.100;18.336;2023-02-17T15:57:48;42.47;;;21.02;;
20296;SDS011;10307;40.100;18.336;2023-02-17T16:00:23;23.88;;;12.60;;
20296;SDS011;10307;40.100;18.336;2023-02-17T16:02:52;28.30;;;15.45;;
20296;SDS011;10307;40.100;18.336;2023-02-17T16:05:19;26.58;;;14.55;;
20296;SDS011;10307;40.100;18.336;2023-02-17T16:07:47;31.55;;;20.10;;
20296;SDS011;10307;40.100;18.336;2023-02-17T16:10:15;27.38;;;17.30;;
20296;SDS011;10307;40.100;18.336;2023-02-17T16:12:44;25.42;;;16.23;;
20296;SDS011;10307;40.100;18.336;2023-02-17T16:15:16;25.98;;;15.18;;
20296;SDS011;10307;40.100;18.336;2023-02-17T16:17:46;24.70;;;15.50;;
20296;SDS011;10307;40.100;18.336;2023-02-17T16:20:23;23.25;;;13.55;;
20296;SDS011;10307;40.100;18.336;2023-02-17T16:22:52;26.77;;;16.02;;
20296;SDS011;10307;40.100;18.336;2023-02-17T16:25:19;33.53;;;20.23;;
20296;SDS011;10307;40.100;18.336;2023-02-17T16:27:47;33.05;;;19.73;;
20296;SDS011;10307;40.100;18.336;2023-02-17T16:30:22;27.95;;;17.55;;